createdAt,value
2022-08-14T00:03:29.485Z,70.69
2022-08-14T00:08:44.944Z,71.33
2022-08-14T00:13:27.790Z,72.78
2022-08-14T00:18:30.409Z,73.32
2022-08-14T00:23:29.104Z,73.93
2022-08-14T00:28:32.958Z,75.68
2022-08-14T00:33:51.754Z,75.57
2022-08-14T00:38:32.029Z,76.89
2022-08-14T00:43:31.680Z,77.19
2022-08-14T00:48:34.723Z,78.38
2022-08-14T00:53:32.112Z,78.38
2022-08-14T00:58:33.361Z,78.92
2022-08-14T01:03:32.644Z,78.96
2022-08-14T01:08:57.768Z,79.40
2022-08-14T01:13:43.080Z,80.31
2022-08-14T01:18:34.823Z,79.91
2022-08-14T01:23:46.475Z,80.21
2022-08-14T01:28:56.552Z,80.52
2022-08-14T01:33:52.211Z,80.72
2022-08-14T01:38:38.809Z,81.26
2022-08-14T01:43:36.766Z,82.52
2022-08-14T01:48:38.865Z,82.42
2022-08-14T01:53:38.494Z,82.62
2022-08-14T01:58:57.270Z,81.91
2022-08-14T02:03:40.260Z,82.21
2022-08-14T02:08:52.381Z,82.21
2022-08-14T02:13:40.440Z,83.10
2022-08-14T02:18:41.308Z,84.05
2022-08-14T02:23:40.190Z,84.16
2022-08-14T02:28:57.862Z,85.92
2022-08-14T02:33:39.782Z,85.21
2022-08-14T02:38:39.722Z,85.82
2022-08-14T02:43:48.573Z,84.80
2022-08-14T02:49:01.490Z,85.52
2022-08-14T02:53:42.356Z,85.01
2022-08-14T02:58:41.783Z,85.52
2022-08-14T03:03:41.520Z,85.72
2022-08-14T03:08:45.201Z,85.72
2022-08-14T03:13:43.231Z,86.88
2022-08-14T03:18:43.768Z,87.18
2022-08-14T03:23:42.994Z,88.13
2022-08-14T03:28:44.439Z,89.15
2022-08-14T03:33:51.796Z,89.56
2022-08-14T03:39:12.462Z,90.01
2022-08-14T03:43:46.670Z,89.97
2022-08-14T03:48:46.612Z,89.46
2022-08-14T03:53:46.575Z,89.61
2022-08-14T03:58:49.701Z,89.26
2022-08-14T04:03:48.586Z,89.61
2022-08-14T04:08:48.537Z,89.70
2022-08-14T04:13:49.314Z,89.26
2022-08-14T04:18:49.307Z,89.70
2022-08-14T04:23:57.167Z,89.81
2022-08-14T04:29:09.145Z,90.92
2022-08-14T04:33:50.532Z,91.23
2022-08-14T04:38:53.971Z,89.72
2022-08-14T04:43:54.074Z,89.62
2022-08-14T04:48:55.399Z,88.87
2022-08-14T04:53:53.098Z,88.56
2022-08-14T04:58:54.208Z,89.01
2022-08-14T05:03:56.306Z,88.46
2022-08-14T05:09:00.095Z,87.20
2022-08-14T05:14:43.383Z,86.65
2022-08-14T05:19:19.124Z,86.82
2022-08-14T05:23:57.405Z,85.90
2022-08-14T05:28:59.306Z,85.96
2022-08-14T05:33:58.492Z,83.90
2022-08-14T05:39:00.613Z,84.67
2022-08-14T05:44:01.010Z,85.07
2022-08-14T05:49:00.205Z,83.82
2022-08-14T05:54:11.446Z,82.56
2022-08-14T05:59:02.368Z,81.21
2022-08-14T06:04:04.413Z,80.16
2022-08-14T06:09:06.249Z,79.41
2022-08-14T06:14:12.269Z,78.47
2022-08-14T06:19:05.137Z,77.02
2022-08-14T06:24:04.956Z,74.29
2022-08-14T06:29:05.901Z,75.63
2022-08-14T06:35:09.652Z,74.46
2022-08-14T06:39:09.982Z,74.18
2022-08-14T06:44:04.869Z,71.94
2022-08-14T06:49:05.977Z,69.52
2022-08-14T06:54:08.514Z,66.44
2022-08-14T06:59:07.629Z,66.38
2022-08-14T07:04:12.729Z,63.54
2022-08-14T07:09:10.027Z,64.15
2022-08-14T07:14:09.882Z,59.85
2022-08-14T07:19:09.019Z,59.30
2022-08-14T07:24:22.050Z,58.21
2022-08-14T07:29:11.131Z,55.88
2022-08-14T07:34:12.141Z,53.66
2022-08-14T07:39:13.424Z,53.84
2022-08-14T07:44:32.351Z,54.58
2022-08-14T07:49:17.600Z,51.20
2022-08-14T07:54:16.440Z,52.76
2022-08-14T07:59:13.672Z,49.76
2022-08-14T08:04:18.930Z,50.33
2022-08-14T08:09:16.823Z,49.31
2022-08-14T08:14:17.176Z,49.68
2022-08-14T08:19:17.740Z,49.66
2022-08-14T08:24:19.714Z,49.44
2022-08-14T08:29:17.767Z,49.14
2022-08-14T08:34:20.463Z,49.61
2022-08-14T08:39:22.793Z,48.30
2022-08-14T08:44:32.023Z,49.27
2022-08-14T08:49:22.291Z,48.20
2022-08-14T08:54:26.554Z,47.16
2022-08-14T08:59:30.895Z,48.20
2022-08-14T09:04:25.255Z,45.82
2022-08-14T09:09:30.481Z,45.82
2022-08-14T09:14:25.053Z,51.35
2022-08-14T09:19:28.226Z,52.09
2022-08-14T09:24:28.220Z,51.00
2022-08-14T09:29:28.796Z,50.78
2022-08-14T09:34:28.042Z,49.99
2022-08-14T09:39:32.541Z,48.80
2022-08-14T09:44:27.938Z,49.51
2022-08-14T09:49:30.068Z,49.74
2022-08-14T09:54:29.183Z,49.05
2022-08-14T09:59:33.494Z,49.76
2022-08-14T10:04:46.049Z,49.57
2022-08-14T10:09:34.807Z,48.67
2022-08-14T10:14:35.347Z,47.22
2022-08-14T10:19:31.125Z,48.50
2022-08-14T10:24:37.149Z,46.88
2022-08-14T10:29:33.029Z,46.08
2022-08-14T10:34:33.453Z,45.59
2022-08-14T10:39:31.803Z,46.45
2022-08-14T10:44:33.143Z,44.97
2022-08-14T10:49:34.281Z,43.27
2022-08-14T10:54:40.210Z,46.31
2022-08-14T10:59:39.169Z,47.30
2022-08-14T11:04:37.461Z,47.62
2022-08-14T11:09:41.987Z,47.96
2022-08-14T11:14:37.171Z,48.03
2022-08-14T11:19:37.145Z,49.22
2022-08-14T11:24:50.516Z,51.59
2022-08-14T11:29:38.181Z,49.08
2022-08-14T11:34:39.139Z,50.41
2022-08-14T11:39:38.430Z,50.19
2022-08-14T11:44:45.624Z,50.04
2022-08-14T11:49:41.524Z,48.93
2022-08-14T11:54:41.889Z,47.25
2022-08-14T11:59:44.135Z,49.30
2022-08-14T12:04:41.622Z,47.65
2022-08-14T12:09:43.137Z,47.00
2022-08-14T12:14:44.375Z,49.22
2022-08-14T12:19:42.369Z,51.35
2022-08-14T12:24:43.583Z,49.45
2022-08-14T12:29:43.470Z,47.30
2022-08-14T12:34:45.610Z,46.74
2022-08-14T12:39:44.768Z,47.06
2022-08-14T12:44:46.132Z,44.37
2022-08-14T12:49:48.527Z,44.25
2022-08-14T12:55:01.613Z,43.93
2022-08-14T12:59:49.612Z,45.85
2022-08-14T13:04:50.800Z,45.12
2022-08-14T13:09:52.153Z,45.43
2022-08-14T13:14:51.257Z,44.35
2022-08-14T13:19:52.593Z,44.84
2022-08-14T13:24:53.734Z,44.94
2022-08-14T13:29:54.798Z,41.96
2022-08-14T13:34:54.565Z,43.64
2022-08-14T13:40:00.816Z,43.46
2022-08-14T13:44:57.011Z,42.30
2022-08-14T13:49:58.495Z,41.78
2022-08-14T13:54:59.600Z,42.47
2022-08-14T13:59:58.711Z,42.65
2022-08-14T14:04:59.822Z,42.60
2022-08-14T14:10:03.675Z,43.48
2022-08-14T14:15:04.858Z,42.46
2022-08-14T14:20:02.997Z,43.40
2022-08-14T14:25:03.664Z,43.74
2022-08-14T14:30:04.759Z,43.74
2022-08-14T14:35:05.709Z,44.18
2022-08-14T14:40:54.524Z,44.87
2022-08-14T14:45:04.736Z,45.34
2022-08-14T14:50:04.982Z,44.13
2022-08-14T14:55:06.100Z,43.62
2022-08-14T15:00:06.292Z,43.91
2022-08-14T15:05:08.852Z,43.20
2022-08-14T15:10:27.323Z,43.82
2022-08-14T15:15:09.536Z,42.79
2022-08-14T15:20:17.255Z,43.48
2022-08-14T15:25:10.630Z,43.70
2022-08-14T15:30:11.791Z,42.91
2022-08-14T15:35:11.719Z,41.88
2022-08-14T15:40:16.460Z,42.61
2022-08-14T15:45:14.053Z,43.30
2022-08-14T15:50:14.012Z,42.61
2022-08-14T15:55:14.795Z,42.95
2022-08-14T16:00:37.881Z,42.10
2022-08-14T16:05:16.304Z,42.49
2022-08-14T16:10:29.140Z,41.93
2022-08-14T16:15:17.134Z,42.61
2022-08-14T16:20:42.055Z,41.59
2022-08-14T16:25:18.123Z,42.79
2022-08-14T16:30:20.760Z,44.68
2022-08-14T16:35:17.567Z,45.02
2022-08-14T16:40:16.666Z,44.90
2022-08-14T16:45:17.798Z,44.88
2022-08-14T16:50:42.948Z,43.91
2022-08-14T16:55:19.915Z,44.65
2022-08-14T17:00:28.284Z,45.16
2022-08-14T17:05:22.003Z,46.59
2022-08-14T17:10:27.930Z,46.81
2022-08-14T17:15:23.078Z,47.00
2022-08-14T17:20:54.556Z,47.08
2022-08-14T17:25:24.119Z,47.08
2022-08-14T17:30:32.157Z,47.60
2022-08-14T17:35:24.126Z,48.49
2022-08-14T17:40:24.098Z,48.93
2022-08-14T17:45:27.060Z,47.78
2022-08-14T17:50:59.367Z,50.26
2022-08-14T17:56:01.591Z,50.16
2022-08-14T18:00:27.499Z,50.09
2022-08-14T18:06:09.799Z,49.02
2022-08-14T18:10:52.118Z,49.74
2022-08-14T18:15:35.497Z,50.56
2022-08-14T18:21:42.152Z,51.37
2022-08-14T18:25:29.157Z,52.00
2022-08-14T18:30:32.073Z,52.79
2022-08-14T18:35:46.322Z,53.41
2022-08-14T18:40:34.563Z,54.13
2022-08-14T18:45:29.458Z,54.03
2022-08-14T18:50:31.758Z,54.93
2022-08-14T18:55:30.872Z,54.23
2022-08-14T19:00:32.713Z,54.63
2022-08-14T19:05:33.699Z,58.06
2022-08-14T19:10:37.363Z,58.58
2022-08-14T19:15:32.807Z,58.58
2022-08-14T19:20:37.754Z,59.48
2022-08-14T19:25:33.780Z,60.13
2022-08-14T19:30:33.106Z,60.50
2022-08-14T19:35:48.936Z,62.79
2022-08-14T19:40:35.326Z,64.78
2022-08-14T19:45:33.882Z,65.11
2022-08-14T19:50:40.286Z,61.99
2022-08-14T19:55:36.380Z,60.36
2022-08-14T20:00:35.794Z,63.32
2022-08-14T20:05:43.009Z,63.52
2022-08-14T20:11:04.631Z,64.42
2022-08-14T20:16:00.111Z,66.53
2022-08-14T20:20:35.787Z,69.73
2022-08-14T20:25:36.679Z,65.34
2022-08-14T20:30:36.436Z,69.96
2022-08-14T20:35:41.892Z,69.62
2022-08-14T20:40:35.111Z,70.36
2022-08-14T20:45:34.926Z,70.75
2022-08-14T20:50:44.814Z,70.65
2022-08-14T20:55:36.998Z,69.76
2022-08-14T21:00:38.519Z,67.40
2022-08-14T21:05:40.040Z,67.80
2022-08-14T21:10:44.018Z,67.03
2022-08-14T21:15:37.738Z,66.93
2022-08-14T21:20:36.118Z,65.20
2022-08-14T21:25:38.327Z,66.60
2022-08-14T21:30:51.349Z,65.73
2022-08-14T21:35:41.779Z,66.43
2022-08-14T21:40:42.832Z,66.33
2022-08-14T21:45:40.223Z,66.66
2022-08-14T21:51:02.208Z,66.33
2022-08-14T21:55:43.107Z,67.26
2022-08-14T22:00:43.743Z,67.36
2022-08-14T22:05:45.928Z,69.16
2022-08-14T22:10:44.661Z,68.79
2022-08-14T22:15:43.857Z,68.59
2022-08-14T22:20:45.506Z,68.93
2022-08-14T22:25:44.586Z,70.62
2022-08-14T22:30:45.010Z,71.33
2022-08-14T22:35:46.805Z,71.33
2022-08-14T22:41:04.771Z,73.75
2022-08-14T22:45:55.713Z,74.49
2022-08-14T22:50:49.206Z,74.93
2022-08-14T22:55:47.765Z,72.79
2022-08-14T23:00:46.341Z,73.72
2022-08-14T23:05:52.669Z,74.49
2022-08-14T23:10:48.427Z,75.43
2022-08-14T23:15:47.854Z,75.09
2022-08-14T23:20:49.204Z,76.06
2022-08-14T23:26:00.575Z,76.76
2022-08-14T23:30:51.364Z,76.06
2022-08-14T23:35:59.246Z,76.56
2022-08-14T23:40:51.217Z,75.80
2022-08-14T23:45:52.441Z,76.40
2022-08-14T23:50:53.406Z,76.87
2022-08-14T23:55:54.506Z,78.06
